Farmington, New Mexico
Current Conditions -  °F | °C
As of 2:53 AM on Thursday 27 Nov 2014 (Local Time) from KFMN Reporting Station
Clear Clear  
Wind Chill: 21°   Ceiling: Unl
Heat Index: 26°   Visibility: 10mi
Dew Point: 18°   Wind: 5mph
Humidity: 71%   Direction: 80°E
Pressure: 30.47"   Gusts: NA
Location:  36.73°N, 108.2°W
Report Text: KFMN 270953Z AUTO 08004KT 10SM CLR M03/M08 A3047 RMK AO2 SLP319 T10331078
Loading
Personal Weather Stations






























Interactive Weather Map New forecast layout! Learn more

10-Day Weather Forecast

Advertisements
Track Severe Weather on mobile